Flight Track Log - Related Links

Times and Time Zones

All times are in EDT time to prevent confusion due to time zone crossing. See the N6658K flight status page for this flight to view local times or setup timezone preferences in your user account.

Time Position Orientation Groundspeed Altitude Reporting Facility
EDT Latitude Longitude Course Direction KTS MPH feet Rate Location/Type
Thu 07:16:21 PM 43.0372 -78.0608 73° East 93 107 3,900  Level Cleveland Center
Thu 07:17:22 PM 43.0447 -78.0264 73° East 92 106 4,900 836 Climbing Cleveland Center
Thu 07:18:23 PM 43.0481 -77.9894 83° East 95 109 5,600 397 Climbing Cleveland Center
Thu 07:19:23 PM 43.0553 -77.9436 78° East 136 157 5,700 50 Climbing Cleveland Center
Thu 07:20:24 PM 43.0581 -77.8839 86° East 153 176 5,700 -49 Level Cleveland Center
Thu 07:21:25 PM 43.0589 -77.8242 89° East 158 182 5,600 -50 Descending Cleveland Center
Thu 07:22:25 PM 43.0658 -77.7669 81° East 150 173 5,600  Level Cleveland Center
Thu 07:23:26 PM 43.0750 -77.7125 77° East 154 177 5,600 49 Level Cleveland Center
Thu 07:24:27 PM 43.0817 -77.6525 81° East 155 178 5,700  Climbing Cleveland Center
Thu 07:25:27 PM 43.0844 -77.5928 86° East 158 182 5,600 -50 Descending Cleveland Center
Thu 07:26:28 PM 43.0892 -77.5328 84° East 156 180 5,600  Level Cleveland Center
Thu 07:27:28 PM 43.0958 -77.4728 81° East 158 182 5,600  Level Cleveland Center
Thu 07:28:29 PM 43.1025 -77.4125 81° East 155 178 5,600  Level Cleveland Center
Thu 07:29:30 PM 43.1050 -77.3528 87° East 155 178 5,600  Level Cleveland Center
Thu 07:30:30 PM 43.1139 -77.2983 77° East 154 177 5,600  Level Cleveland Center
Thu 07:31:31 PM 43.1183 -77.2383 84° East 154 177 5,600 -39 Level Cleveland Center
Thu 07:33:05 PM 43.1306 -77.1467 80° East 152 175 5,500 -39 Descending Boston Center
Thu 07:34:06 PM 43.1289 -77.0894 92° East 152 175 5,500  Level Boston Center
Thu 07:35:07 PM 43.1333 -77.0300 84° East 154 177 5,500  Level Boston Center
Thu 07:36:07 PM 43.1439 -76.9739 76° East 156 180 5,500  Level Boston Center
Thu 07:37:08 PM 43.1464 -76.9144 87° East 157 181 5,500  Level Boston Center
Thu 07:38:09 PM 43.1486 -76.8547 87° East 157 181 5,500  Level Boston Center
Thu 07:39:10 PM 43.1572 -76.7956 79° East 156 180 5,500  Level Boston Center
Thu 07:40:10 PM 43.1592 -76.7386 87° East 155 178 5,500  Level Boston Center
Thu 07:41:17 PM 43.1661 -76.6681 82° East 154 177 5,500 50 Level Boston Center
Thu 07:42:11 PM 43.1681 -76.6139 87° East 153 176 5,600  Climbing Boston Center
Thu 07:43:12 PM 43.1722 -76.5603 84° East 151 174 5,500 -52 Descending Boston Center
Thu 07:44:06 PM 43.1783 -76.5064 81° East 151 174 5,500  Level Boston Center
Thu 07:45:01 PM 43.1819 -76.4611 84° East 148 170 5,500  Level Boston Center
Thu 07:46:14 PM 43.1864 -76.3903 85° East 148 170 5,500  Level Boston Center
Thu 07:47:14 PM 43.1906 -76.3364 84° East 148 170 5,500  Level Boston Center
Thu 07:48:23 PM 43.2011 -76.2714 77° East 148 170 5,500  Level Boston Center
Thu 07:49:16 PM 43.2047 -76.2206 84° East 148 170 5,500  Level Boston Center
Thu 07:50:16 PM 43.2108 -76.1639 82° East 147 169 5,500  Level Boston Center
Thu 07:51:17 PM 43.2083 -76.1067 93° East 149 171 5,500 -155 Level Boston Center
Thu 07:52:12 PM 43.2081 -76.0581 90° East 150 173 5,200 -626 Descending Boston Center
Thu 07:53:12 PM 43.2183 -75.9961 77° East 155 178 4,300 -803 Descending Boston Center
Thu 07:54:19 PM 43.2286 -75.9339 77° East 157 181 3,500 -709 Descending Boston Center
Thu 07:55:19 PM 43.2325 -75.8744 85° East 158 182 2,800 -595 Descending Boston Center
Thu 07:56:20 PM 43.2342 -75.8175 88° East 154 177 2,300 -443 Descending Boston Center
Thu 07:57:21 PM 43.2378 -75.7633 85° East 141 162 1,900 -209 Descending Boston Center
Thu 07:58:15 PM 43.2453 -75.7183 77° East 126 145 1,900 -55 Level Boston Center
Thu 07:59:10 PM 43.2464 -75.6811 88° East 110 127 1,800 42 Descending Boston Center
Thu 08:01:00 PM 43.2500 -75.6000 71° East  Level FlightAware Approximate
Thu 08:08:00 PM 43.2509 -75.6044 71° East  Level Estimated
Thu 08:09:00 PM 43.2500 -75.6000 71° East  Level FlightAware Approximate
Thu 08:10:00 PM 43.2509 -75.6044 71° East  Level Estimated
Thu 08:11:00 PM 43.2500 -75.6000 71° East  Level FlightAware Approximate
Thu 08:12:00 PM 43.2509 -75.6044 71° East  Level Estimated
Thu 08:12:30 PM 43.2108 -75.7564 255° West 147 169 2,500  Level Boston Center
Thu 08:13:00 PM 43.2500 -75.6000 71° East  Level FlightAware Approximate
Thu 08:13:31 PM 43.1947 -75.8094 247° West 152 175 2,400  Level Boston Center
Thu 08:14:00 PM 43.2509 -75.6044 71° East  Level Estimated
Thu 08:14:32 PM 43.1786 -75.8628 248° West 151 174 2,400  Level Boston Center
Thu 08:15:00 PM 43.2500 -75.6000 71° East  Level FlightAware Approximate
Thu 08:16:00 PM 43.2509 -75.6044 71° East  Level Estimated

Login

Don't have an account? Register now (free) for customized features, flight alerts, and more!